sensor_id;sensor_type;location;lat;lon;timestamp;P1;durP1;ratioP1;P2;durP2;ratioP2
22284;SDS011;11311;52.192;20.900;2023-06-19T00:00:13;19.00;;;17.02;;
22284;SDS011;11311;52.192;20.900;2023-06-19T00:02:45;21.30;;;17.02;;
22284;SDS011;11311;52.192;20.900;2023-06-19T00:05:14;18.13;;;16.25;;
22284;SDS011;11311;52.192;20.900;2023-06-19T00:07:42;17.88;;;16.17;;
22284;SDS011;11311;52.192;20.900;2023-06-19T00:10:11;17.75;;;16.00;;
22284;SDS011;11311;52.192;20.900;2023-06-19T00:12:39;18.45;;;16.60;;
22284;SDS011;11311;52.192;20.900;2023-06-19T00:15:10;16.90;;;14.88;;
22284;SDS011;11311;52.192;20.900;2023-06-19T00:17:39;15.98;;;14.60;;
22284;SDS011;11311;52.192;20.900;2023-06-19T00:20:09;16.17;;;14.77;;
22284;SDS011;11311;52.192;20.900;2023-06-19T00:22:40;17.05;;;15.35;;
22284;SDS011;11311;52.192;20.900;2023-06-19T00:25:09;16.80;;;15.07;;
22284;SDS011;11311;52.192;20.900;2023-06-19T00:27:37;16.95;;;15.20;;
22284;SDS011;11311;52.192;20.900;2023-06-19T00:30:07;15.57;;;13.77;;
22284;SDS011;11311;52.192;20.900;2023-06-19T00:32:38;14.40;;;13.02;;
22284;SDS011;11311;52.192;20.900;2023-06-19T00:35:14;14.82;;;13.38;;
22284;SDS011;11311;52.192;20.900;2023-06-19T00:37:43;14.35;;;13.15;;
22284;SDS011;11311;52.192;20.900;2023-06-19T00:40:14;17.45;;;13.20;;
22284;SDS011;11311;52.192;20.900;2023-06-19T00:42:48;13.60;;;12.18;;
22284;SDS011;11311;52.192;20.900;2023-06-19T00:45:18;13.00;;;11.88;;
22284;SDS011;11311;52.192;20.900;2023-06-19T00:47:48;15.35;;;13.32;;
22284;SDS011;11311;52.192;20.900;2023-06-19T00:52:45;13.52;;;12.43;;
22284;SDS011;11311;52.192;20.900;2023-06-19T00:55:14;13.55;;;12.35;;
22284;SDS011;11311;52.192;20.900;2023-06-19T00:57:43;13.40;;;12.30;;
22284;SDS011;11311;52.192;20.900;2023-06-19T01:00:12;13.90;;;12.52;;
22284;SDS011;11311;52.192;20.900;2023-06-19T01:02:42;19.40;;;13.47;;
22284;SDS011;11311;52.192;20.900;2023-06-19T01:05:12;13.23;;;11.98;;
22284;SDS011;11311;52.192;20.900;2023-06-19T01:07:43;12.88;;;11.68;;
22284;SDS011;11311;52.192;20.900;2023-06-19T01:10:15;12.65;;;11.55;;
22284;SDS011;11311;52.192;20.900;2023-06-19T01:12:49;13.48;;;11.70;;
22284;SDS011;11311;52.192;20.900;2023-06-19T01:15:23;14.07;;;12.50;;
22284;SDS011;11311;52.192;20.900;2023-06-19T01:17:53;14.00;;;12.70;;
22284;SDS011;11311;52.192;20.900;2023-06-19T01:22:53;12.65;;;11.23;;
22284;SDS011;11311;52.192;20.900;2023-06-19T01:25:24;12.90;;;11.70;;
22284;SDS011;11311;52.192;20.900;2023-06-19T01:27:53;13.80;;;12.32;;
22284;SDS011;11311;52.192;20.900;2023-06-19T01:30:22;13.05;;;11.88;;
22284;SDS011;11311;52.192;20.900;2023-06-19T01:32:53;15.93;;;12.85;;
22284;SDS011;11311;52.192;20.900;2023-06-19T01:35:29;13.65;;;12.35;;
22284;SDS011;11311;52.192;20.900;2023-06-19T01:38:02;13.73;;;12.45;;
22284;SDS011;11311;52.192;20.900;2023-06-19T01:40:32;14.30;;;12.98;;
22284;SDS011;11311;52.192;20.900;2023-06-19T01:43:01;16.17;;;14.48;;
22284;SDS011;11311;52.192;20.900;2023-06-19T01:45:31;14.50;;;13.15;;
22284;SDS011;11311;52.192;20.900;2023-06-19T01:48:00;15.43;;;13.07;;
22284;SDS011;11311;52.192;20.900;2023-06-19T01:50:29;19.45;;;13.20;;
22284;SDS011;11311;52.192;20.900;2023-06-19T01:53:01;13.75;;;12.32;;
22284;SDS011;11311;52.192;20.900;2023-06-19T01:55:30;14.48;;;13.27;;
22284;SDS011;11311;52.192;20.900;2023-06-19T01:57:59;14.95;;;13.27;;
22284;SDS011;11311;52.192;20.900;2023-06-19T02:00:29;13.57;;;12.38;;
22284;SDS011;11311;52.192;20.900;2023-06-19T02:03:02;14.77;;;13.45;;
22284;SDS011;11311;52.192;20.900;2023-06-19T02:05:31;14.52;;;13.13;;
22284;SDS011;11311;52.192;20.900;2023-06-19T02:08:02;14.40;;;13.10;;
22284;SDS011;11311;52.192;20.900;2023-06-19T02:10:34;16.40;;;14.93;;
22284;SDS011;11311;52.192;20.900;2023-06-19T02:13:03;14.85;;;13.45;;
22284;SDS011;11311;52.192;20.900;2023-06-19T02:15:32;16.50;;;14.80;;
22284;SDS011;11311;52.192;20.900;2023-06-19T02:18:02;15.07;;;12.82;;
22284;SDS011;11311;52.192;20.900;2023-06-19T02:20:31;15.75;;;13.95;;
22284;SDS011;11311;52.192;20.900;2023-06-19T02:25:31;13.98;;;12.70;;
22284;SDS011;11311;52.192;20.900;2023-06-19T02:28:02;15.05;;;12.75;;
22284;SDS011;11311;52.192;20.900;2023-06-19T02:30:31;13.68;;;12.50;;
22284;SDS011;11311;52.192;20.900;2023-06-19T02:32:59;14.25;;;13.05;;
22284;SDS011;11311;52.192;20.900;2023-06-19T02:35:28;13.57;;;12.32;;
22284;SDS011;11311;52.192;20.900;2023-06-19T02:37:57;14.68;;;13.38;;
22284;SDS011;11311;52.192;20.900;2023-06-19T02:40:27;15.23;;;13.93;;
22284;SDS011;11311;52.192;20.900;2023-06-19T02:42:56;15.88;;;14.20;;
22284;SDS011;11311;52.192;20.900;2023-06-19T02:45:24;14.02;;;12.85;;
22284;SDS011;11311;52.192;20.900;2023-06-19T02:47:54;15.23;;;13.93;;
22284;SDS011;11311;52.192;20.900;2023-06-19T02:50:23;14.30;;;12.85;;
22284;SDS011;11311;52.192;20.900;2023-06-19T02:52:52;15.32;;;14.02;;
22284;SDS011;11311;52.192;20.900;2023-06-19T02:55:21;15.75;;;13.63;;
22284;SDS011;11311;52.192;20.900;2023-06-19T02:57:51;16.30;;;13.68;;
22284;SDS011;11311;52.192;20.900;2023-06-19T03:02:49;14.85;;;12.65;;
22284;SDS011;11311;52.192;20.900;2023-06-19T03:05:19;14.48;;;13.18;;
22284;SDS011;11311;52.192;20.900;2023-06-19T03:07:47;14.75;;;13.25;;
22284;SDS011;11311;52.192;20.900;2023-06-19T03:10:16;14.80;;;13.32;;
22284;SDS011;11311;52.192;20.900;2023-06-19T03:12:45;14.60;;;13.30;;
22284;SDS011;11311;52.192;20.900;2023-06-19T03:15:16;15.60;;;13.90;;
22284;SDS011;11311;52.192;20.900;2023-06-19T03:17:48;16.50;;;13.70;;
22284;SDS011;11311;52.192;20.900;2023-06-19T03:20:18;15.40;;;13.93;;
22284;SDS011;11311;52.192;20.900;2023-06-19T03:22:53;15.35;;;13.75;;
22284;SDS011;11311;52.192;20.900;2023-06-19T03:27:53;13.93;;;12.73;;
22284;SDS011;11311;52.192;20.900;2023-06-19T03:30:23;15.10;;;13.25;;
22284;SDS011;11311;52.192;20.900;2023-06-19T03:32:53;14.25;;;12.75;;
22284;SDS011;11311;52.192;20.900;2023-06-19T03:35:51;13.68;;;12.30;;
22284;SDS011;11311;52.192;20.900;2023-06-19T03:38:39;12.73;;;11.68;;
22284;SDS011;11311;52.192;20.900;2023-06-19T03:41:10;15.05;;;13.68;;
22284;SDS011;11311;52.192;20.900;2023-06-19T03:43:39;13.90;;;12.40;;
22284;SDS011;11311;52.192;20.900;2023-06-19T03:46:09;14.63;;;13.25;;
22284;SDS011;11311;52.192;20.900;2023-06-19T03:48:38;13.85;;;12.43;;
22284;SDS011;11311;52.192;20.900;2023-06-19T03:51:07;15.27;;;13.85;;
22284;SDS011;11311;52.192;20.900;2023-06-19T03:53:36;15.05;;;13.65;;
22284;SDS011;11311;52.192;20.900;2023-06-19T03:56:04;13.73;;;12.35;;
22284;SDS011;11311;52.192;20.900;2023-06-19T03:58:33;14.52;;;13.13;;
22284;SDS011;11311;52.192;20.900;2023-06-19T04:01:02;15.15;;;13.15;;
22284;SDS011;11311;52.192;20.900;2023-06-19T04:03:34;14.57;;;13.20;;
22284;SDS011;11311;52.192;20.900;2023-06-19T04:06:05;15.48;;;12.75;;
22284;SDS011;11311;52.192;20.900;2023-06-19T04:08:38;14.45;;;13.05;;
22284;SDS011;11311;52.192;20.900;2023-06-19T04:11:10;13.65;;;12.25;;
22284;SDS011;11311;52.192;20.900;2023-06-19T04:13:39;14.13;;;12.82;;
22284;SDS011;11311;52.192;20.900;2023-06-19T04:16:08;15.70;;;14.20;;
22284;SDS011;11311;52.192;20.900;2023-06-19T04:18:38;15.68;;;14.27;;
22284;SDS011;11311;52.192;20.900;2023-06-19T04:21:07;16.08;;;14.48;;
22284;SDS011;11311;52.192;20.900;2023-06-19T04:23:38;14.80;;;13.50;;
22284;SDS011;11311;52.192;20.900;2023-06-19T04:26:07;15.32;;;13.93;;
22284;SDS011;11311;52.192;20.900;2023-06-19T04:28:35;14.93;;;13.30;;
22284;SDS011;11311;52.192;20.900;2023-06-19T04:31:04;15.15;;;13.70;;
22284;SDS011;11311;52.192;20.900;2023-06-19T04:33:32;15.35;;;13.85;;
22284;SDS011;11311;52.192;20.900;2023-06-19T04:36:03;16.52;;;15.02;;
22284;SDS011;11311;52.192;20.900;2023-06-19T04:41:00;15.43;;;14.02;;
22284;SDS011;11311;52.192;20.900;2023-06-19T04:43:29;15.88;;;14.35;;
22284;SDS011;11311;52.192;20.900;2023-06-19T04:45:58;15.75;;;14.20;;
22284;SDS011;11311;52.192;20.900;2023-06-19T04:48:27;16.10;;;14.60;;
22284;SDS011;11311;52.192;20.900;2023-06-19T04:50:56;17.15;;;13.93;;
22284;SDS011;11311;52.192;20.900;2023-06-19T04:53:29;14.30;;;12.98;;
22284;SDS011;11311;52.192;20.900;2023-06-19T04:55:58;16.67;;;14.05;;
22284;SDS011;11311;52.192;20.900;2023-06-19T04:58:28;19.30;;;14.75;;
22284;SDS011;11311;52.192;20.900;2023-06-19T05:00:57;15.20;;;13.80;;
22284;SDS011;11311;52.192;20.900;2023-06-19T05:03:26;16.67;;;14.95;;
22284;SDS011;11311;52.192;20.900;2023-06-19T05:05:54;19.38;;;15.13;;
22284;SDS011;11311;52.192;20.900;2023-06-19T05:08:24;13.90;;;12.50;;
22284;SDS011;11311;52.192;20.900;2023-06-19T05:10:53;14.48;;;13.10;;
22284;SDS011;11311;52.192;20.900;2023-06-19T05:13:23;16.30;;;14.73;;
22284;SDS011;11311;52.192;20.900;2023-06-19T05:15:52;15.93;;;14.35;;
22284;SDS011;11311;52.192;20.900;2023-06-19T05:18:23;13.57;;;12.52;;
22284;SDS011;11311;52.192;20.900;2023-06-19T05:20:52;14.63;;;13.07;;
22284;SDS011;11311;52.192;20.900;2023-06-19T05:23:20;14.15;;;12.90;;
22284;SDS011;11311;52.192;20.900;2023-06-19T05:25:49;14.30;;;13.02;;
22284;SDS011;11311;52.192;20.900;2023-06-19T05:28:19;17.00;;;14.45;;
22284;SDS011;11311;52.192;20.900;2023-06-19T05:30:48;16.50;;;15.05;;
22284;SDS011;11311;52.192;20.900;2023-06-19T05:33:17;17.42;;;14.95;;
22284;SDS011;11311;52.192;20.900;2023-06-19T05:35:46;12.57;;;11.57;;
22284;SDS011;11311;52.192;20.900;2023-06-19T05:38:19;12.90;;;11.70;;
22284;SDS011;11311;52.192;20.900;2023-06-19T05:40:48;12.13;;;11.13;;
22284;SDS011;11311;52.192;20.900;2023-06-19T05:43:16;12.27;;;11.13;;
22284;SDS011;11311;52.192;20.900;2023-06-19T05:45:48;12.95;;;11.18;;
22284;SDS011;11311;52.192;20.900;2023-06-19T05:50:45;13.80;;;12.50;;
22284;SDS011;11311;52.192;20.900;2023-06-19T05:53:14;13.45;;;12.13;;
22284;SDS011;11311;52.192;20.900;2023-06-19T05:55:43;12.65;;;11.48;;
22284;SDS011;11311;52.192;20.900;2023-06-19T05:58:12;11.75;;;10.65;;
22284;SDS011;11311;52.192;20.900;2023-06-19T06:00:41;10.88;;;9.48;;
22284;SDS011;11311;52.192;20.900;2023-06-19T06:03:11;12.55;;;11.38;;
22284;SDS011;11311;52.192;20.900;2023-06-19T06:05:41;11.35;;;10.35;;
22284;SDS011;11311;52.192;20.900;2023-06-19T06:08:10;11.77;;;10.63;;
22284;SDS011;11311;52.192;20.900;2023-06-19T06:10:38;10.20;;;9.15;;
22284;SDS011;11311;52.192;20.900;2023-06-19T06:13:08;9.73;;;8.93;;
22284;SDS011;11311;52.192;20.900;2023-06-19T06:15:36;12.77;;;10.07;;
22284;SDS011;11311;52.192;20.900;2023-06-19T06:18:05;8.55;;;7.75;;
22284;SDS011;11311;52.192;20.900;2023-06-19T06:20:36;8.40;;;7.60;;
22284;SDS011;11311;52.192;20.900;2023-06-19T06:23:05;9.35;;;8.43;;
22284;SDS011;11311;52.192;20.900;2023-06-19T06:25:33;9.20;;;8.38;;
22284;SDS011;11311;52.192;20.900;2023-06-19T06:28:02;8.02;;;7.30;;
22284;SDS011;11311;52.192;20.900;2023-06-19T06:30:32;9.50;;;8.60;;
22284;SDS011;11311;52.192;20.900;2023-06-19T06:33:01;9.02;;;7.68;;
22284;SDS011;11311;52.192;20.900;2023-06-19T06:35:30;6.25;;;5.75;;
22284;SDS011;11311;52.192;20.900;2023-06-19T06:38:00;6.90;;;5.85;;
22284;SDS011;11311;52.192;20.900;2023-06-19T06:40:28;5.57;;;5.07;;
22284;SDS011;11311;52.192;20.900;2023-06-19T06:42:57;7.03;;;5.88;;
22284;SDS011;11311;52.192;20.900;2023-06-19T06:45:26;6.75;;;4.43;;
22284;SDS011;11311;52.192;20.900;2023-06-19T06:47:55;4.30;;;3.92;;
22284;SDS011;11311;52.192;20.900;2023-06-19T06:50:24;7.25;;;3.80;;
22284;SDS011;11311;52.192;20.900;2023-06-19T06:52:53;5.97;;;5.38;;
22284;SDS011;11311;52.192;20.900;2023-06-19T06:55:23;6.15;;;5.65;;
22284;SDS011;11311;52.192;20.900;2023-06-19T06:57:52;5.65;;;5.15;;
22284;SDS011;11311;52.192;20.900;2023-06-19T07:00:21;6.95;;;5.50;;
22284;SDS011;11311;52.192;20.900;2023-06-19T07:02:50;6.13;;;5.70;;
22284;SDS011;11311;52.192;20.900;2023-06-19T07:05:19;6.15;;;5.55;;
22284;SDS011;11311;52.192;20.900;2023-06-19T07:07:47;6.55;;;5.95;;
22284;SDS011;11311;52.192;20.900;2023-06-19T07:10:16;10.77;;;5.60;;
22284;SDS011;11311;52.192;20.900;2023-06-19T07:12:47;6.03;;;5.20;;
22284;SDS011;11311;52.192;20.900;2023-06-19T07:15:16;6.43;;;5.50;;
22284;SDS011;11311;52.192;20.900;2023-06-19T07:17:45;7.05;;;6.25;;
22284;SDS011;11311;52.192;20.900;2023-06-19T07:20:16;7.40;;;5.97;;
22284;SDS011;11311;52.192;20.900;2023-06-19T07:22:45;6.65;;;6.10;;
22284;SDS011;11311;52.192;20.900;2023-06-19T07:25:14;7.32;;;6.63;;
22284;SDS011;11311;52.192;20.900;2023-06-19T07:27:42;8.52;;;7.70;;
22284;SDS011;11311;52.192;20.900;2023-06-19T07:30:13;9.93;;;7.38;;
22284;SDS011;11311;52.192;20.900;2023-06-19T07:32:43;7.93;;;7.13;;
22284;SDS011;11311;52.192;20.900;2023-06-19T07:35:12;8.65;;;7.05;;
22284;SDS011;11311;52.192;20.900;2023-06-19T07:37:40;7.45;;;6.75;;
22284;SDS011;11311;52.192;20.900;2023-06-19T07:40:10;7.05;;;6.22;;
22284;SDS011;11311;52.192;20.900;2023-06-19T07:45:12;7.43;;;6.82;;
22284;SDS011;11311;52.192;20.900;2023-06-19T07:47:41;6.72;;;5.95;;
22284;SDS011;11311;52.192;20.900;2023-06-19T07:50:10;6.80;;;6.20;;
22284;SDS011;11311;52.192;20.900;2023-06-19T07:52:39;6.35;;;5.85;;
22284;SDS011;11311;52.192;20.900;2023-06-19T07:55:08;6.95;;;5.95;;
22284;SDS011;11311;52.192;20.900;2023-06-19T07:57:37;6.68;;;6.07;;
22284;SDS011;11311;52.192;20.900;2023-06-19T08:00:06;8.70;;;5.57;;
22284;SDS011;11311;52.192;20.900;2023-06-19T08:02:40;6.13;;;5.72;;
22284;SDS011;11311;52.192;20.900;2023-06-19T08:05:09;6.90;;;6.25;;
22284;SDS011;11311;52.192;20.900;2023-06-19T08:07:38;6.75;;;5.47;;
22284;SDS011;11311;52.192;20.900;2023-06-19T08:10:09;6.47;;;5.90;;
22284;SDS011;11311;52.192;20.900;2023-06-19T08:12:41;8.48;;;5.78;;
22284;SDS011;11311;52.192;20.900;2023-06-19T08:15:10;6.45;;;5.88;;
22284;SDS011;11311;52.192;20.900;2023-06-19T08:17:42;7.15;;;5.07;;
22284;SDS011;11311;52.192;20.900;2023-06-19T08:20:13;6.10;;;5.63;;
22284;SDS011;11311;52.192;20.900;2023-06-19T08:22:41;6.05;;;5.47;;
22284;SDS011;11311;52.192;20.900;2023-06-19T08:25:10;8.50;;;4.82;;
22284;SDS011;11311;52.192;20.900;2023-06-19T08:27:39;6.53;;;4.50;;
22284;SDS011;11311;52.192;20.900;2023-06-19T08:30:08;5.47;;;5.07;;
22284;SDS011;11311;52.192;20.900;2023-06-19T08:32:37;6.30;;;4.93;;
22284;SDS011;11311;52.192;20.900;2023-06-19T08:35:07;6.07;;;5.53;;
22284;SDS011;11311;52.192;20.900;2023-06-19T08:37:36;5.65;;;4.70;;
22284;SDS011;11311;52.192;20.900;2023-06-19T08:40:05;6.88;;;5.30;;
22284;SDS011;11311;52.192;20.900;2023-06-19T08:42:36;5.18;;;4.78;;
22284;SDS011;11311;52.192;20.900;2023-06-19T08:45:07;5.28;;;4.82;;
22284;SDS011;11311;52.192;20.900;2023-06-19T08:47:38;5.10;;;4.70;;
22284;SDS011;11311;52.192;20.900;2023-06-19T08:50:09;6.10;;;4.50;;
22284;SDS011;11311;52.192;20.900;2023-06-19T08:55:09;6.93;;;5.03;;
22284;SDS011;11311;52.192;20.900;2023-06-19T08:57:38;5.68;;;4.60;;
22284;SDS011;11311;52.192;20.900;2023-06-19T09:00:08;5.65;;;5.10;;
22284;SDS011;11311;52.192;20.900;2023-06-19T09:05:13;5.78;;;5.20;;
22284;SDS011;11311;52.192;20.900;2023-06-19T09:07:43;6.20;;;5.70;;
22284;SDS011;11311;52.192;20.900;2023-06-19T09:10:15;8.17;;;5.53;;
22284;SDS011;11311;52.192;20.900;2023-06-19T09:12:55;7.35;;;5.05;;
22284;SDS011;11311;52.192;20.900;2023-06-19T09:15:29;6.78;;;6.13;;
22284;SDS011;11311;52.192;20.900;2023-06-19T09:18:04;5.22;;;4.72;;
22284;SDS011;11311;52.192;20.900;2023-06-19T09:20:39;4.97;;;4.47;;
22284;SDS011;11311;52.192;20.900;2023-06-19T09:23:12;5.55;;;5.03;;
22284;SDS011;11311;52.192;20.900;2023-06-19T09:25:45;4.72;;;4.32;;
22284;SDS011;11311;52.192;20.900;2023-06-19T09:28:18;5.03;;;4.40;;
22284;SDS011;11311;52.192;20.900;2023-06-19T09:30:51;4.80;;;4.30;;
22284;SDS011;11311;52.192;20.900;2023-06-19T09:33:21;4.05;;;3.50;;
22284;SDS011;11311;52.192;20.900;2023-06-19T09:35:52;4.87;;;4.40;;
22284;SDS011;11311;52.192;20.900;2023-06-19T09:38:23;4.90;;;4.50;;
22284;SDS011;11311;52.192;20.900;2023-06-19T09:40:54;4.55;;;3.70;;
22284;SDS011;11311;52.192;20.900;2023-06-19T09:43:24;5.18;;;4.40;;
22284;SDS011;11311;52.192;20.900;2023-06-19T09:45:54;4.57;;;4.05;;
22284;SDS011;11311;52.192;20.900;2023-06-19T09:48:26;5.35;;;4.22;;
22284;SDS011;11311;52.192;20.900;2023-06-19T09:51:00;3.50;;;3.20;;
22284;SDS011;11311;52.192;20.900;2023-06-19T09:53:40;3.97;;;3.58;;
22284;SDS011;11311;52.192;20.900;2023-06-19T09:56:11;4.45;;;3.28;;
22284;SDS011;11311;52.192;20.900;2023-06-19T10:01:09;3.92;;;3.63;;
22284;SDS011;11311;52.192;20.900;2023-06-19T10:03:39;4.20;;;3.77;;
22284;SDS011;11311;52.192;20.900;2023-06-19T10:08:43;7.90;;;3.72;;
22284;SDS011;11311;52.192;20.900;2023-06-19T10:13:41;13.05;;;3.20;;
22284;SDS011;11311;52.192;20.900;2023-06-19T10:16:19;4.47;;;4.00;;
22284;SDS011;11311;52.192;20.900;2023-06-19T10:18:48;3.60;;;3.30;;
22284;SDS011;11311;52.192;20.900;2023-06-19T10:21:18;7.30;;;3.75;;
22284;SDS011;11311;52.192;20.900;2023-06-19T10:23:54;3.25;;;2.97;;
22284;SDS011;11311;52.192;20.900;2023-06-19T10:26:32;4.38;;;3.08;;
22284;SDS011;11311;52.192;20.900;2023-06-19T10:29:00;3.97;;;3.30;;
22284;SDS011;11311;52.192;20.900;2023-06-19T10:31:31;6.32;;;3.10;;
22284;SDS011;11311;52.192;20.900;2023-06-19T10:34:00;4.22;;;3.58;;
22284;SDS011;11311;52.192;20.900;2023-06-19T10:36:33;3.38;;;3.08;;
22284;SDS011;11311;52.192;20.900;2023-06-19T10:39:02;3.88;;;3.47;;
22284;SDS011;11311;52.192;20.900;2023-06-19T10:41:32;3.78;;;3.53;;
22284;SDS011;11311;52.192;20.900;2023-06-19T10:44:02;3.42;;;3.17;;
22284;SDS011;11311;52.192;20.900;2023-06-19T10:46:33;4.15;;;3.42;;
22284;SDS011;11311;52.192;20.900;2023-06-19T10:49:04;6.10;;;3.42;;
22284;SDS011;11311;52.192;20.900;2023-06-19T10:51:36;2.95;;;2.75;;
22284;SDS011;11311;52.192;20.900;2023-06-19T10:54:05;3.17;;;2.90;;
22284;SDS011;11311;52.192;20.900;2023-06-19T10:56:36;3.20;;;2.78;;
22284;SDS011;11311;52.192;20.900;2023-06-19T10:59:06;3.38;;;3.08;;
22284;SDS011;11311;52.192;20.900;2023-06-19T11:01:36;2.97;;;2.75;;
22284;SDS011;11311;52.192;20.900;2023-06-19T11:04:06;3.00;;;2.70;;
22284;SDS011;11311;52.192;20.900;2023-06-19T11:06:38;3.13;;;2.90;;
22284;SDS011;11311;52.192;20.900;2023-06-19T11:09:08;7.72;;;3.00;;
22284;SDS011;11311;52.192;20.900;2023-06-19T11:11:38;2.90;;;2.55;;
22284;SDS011;11311;52.192;20.900;2023-06-19T11:14:08;3.10;;;2.63;;
22284;SDS011;11311;52.192;20.900;2023-06-19T11:16:37;4.40;;;3.10;;
22284;SDS011;11311;52.192;20.900;2023-06-19T11:19:09;4.53;;;2.90;;
22284;SDS011;11311;52.192;20.900;2023-06-19T11:21:45;3.17;;;2.72;;
22284;SDS011;11311;52.192;20.900;2023-06-19T11:24:14;2.67;;;2.47;;
22284;SDS011;11311;52.192;20.900;2023-06-19T11:26:44;4.15;;;3.72;;
22284;SDS011;11311;52.192;20.900;2023-06-19T11:29:17;3.53;;;3.33;;
22284;SDS011;11311;52.192;20.900;2023-06-19T11:31:47;4.18;;;3.10;;
22284;SDS011;11311;52.192;20.900;2023-06-19T11:34:17;3.97;;;3.28;;
22284;SDS011;11311;52.192;20.900;2023-06-19T11:36:54;3.70;;;2.92;;
22284;SDS011;11311;52.192;20.900;2023-06-19T11:39:23;3.35;;;3.05;;
22284;SDS011;11311;52.192;20.900;2023-06-19T11:44:21;3.67;;;2.90;;
22284;SDS011;11311;52.192;20.900;2023-06-19T11:46:50;4.13;;;3.10;;
22284;SDS011;11311;52.192;20.900;2023-06-19T11:49:19;5.68;;;3.70;;
22284;SDS011;11311;52.192;20.900;2023-06-19T11:51:48;3.63;;;3.30;;
22284;SDS011;11311;52.192;20.900;2023-06-19T11:54:18;3.97;;;3.57;;
22284;SDS011;11311;52.192;20.900;2023-06-19T11:56:48;5.25;;;3.45;;
22284;SDS011;11311;52.192;20.900;2023-06-19T11:59:17;4.50;;;4.00;;
22284;SDS011;11311;52.192;20.900;2023-06-19T12:01:45;4.30;;;3.90;;
22284;SDS011;11311;52.192;20.900;2023-06-19T12:04:14;5.22;;;3.33;;
22284;SDS011;11311;52.192;20.900;2023-06-19T12:06:43;4.15;;;3.40;;
22284;SDS011;11311;52.192;20.900;2023-06-19T12:09:12;3.80;;;3.50;;
22284;SDS011;11311;52.192;20.900;2023-06-19T12:11:42;3.90;;;2.77;;
22284;SDS011;11311;52.192;20.900;2023-06-19T12:14:11;8.50;;;3.20;;
22284;SDS011;11311;52.192;20.900;2023-06-19T12:16:40;3.33;;;3.13;;
22284;SDS011;11311;52.192;20.900;2023-06-19T12:19:09;2.75;;;2.50;;
22284;SDS011;11311;52.192;20.900;2023-06-19T12:21:46;3.38;;;2.78;;
22284;SDS011;11311;52.192;20.900;2023-06-19T12:24:15;3.17;;;2.60;;
22284;SDS011;11311;52.192;20.900;2023-06-19T12:29:14;4.07;;;2.80;;
22284;SDS011;11311;52.192;20.900;2023-06-19T12:31:43;5.47;;;2.97;;
22284;SDS011;11311;52.192;20.900;2023-06-19T12:36:46;3.30;;;3.00;;
22284;SDS011;11311;52.192;20.900;2023-06-19T12:39:15;3.53;;;3.20;;
22284;SDS011;11311;52.192;20.900;2023-06-19T12:41:46;5.93;;;3.22;;
22284;SDS011;11311;52.192;20.900;2023-06-19T12:44:15;3.22;;;2.92;;
22284;SDS011;11311;52.192;20.900;2023-06-19T12:46:44;3.85;;;3.28;;
22284;SDS011;11311;52.192;20.900;2023-06-19T12:49:13;4.82;;;3.33;;
22284;SDS011;11311;52.192;20.900;2023-06-19T12:51:42;3.38;;;2.97;;
22284;SDS011;11311;52.192;20.900;2023-06-19T12:54:11;3.20;;;2.63;;
22284;SDS011;11311;52.192;20.900;2023-06-19T12:56:39;6.85;;;3.40;;
22284;SDS011;11311;52.192;20.900;2023-06-19T12:59:10;3.85;;;3.38;;
22284;SDS011;11311;52.192;20.900;2023-06-19T13:01:38;3.40;;;3.10;;
22284;SDS011;11311;52.192;20.900;2023-06-19T13:04:09;3.17;;;2.90;;
22284;SDS011;11311;52.192;20.900;2023-06-19T13:06:39;5.57;;;2.85;;
22284;SDS011;11311;52.192;20.900;2023-06-19T13:09:08;6.13;;;3.33;;
22284;SDS011;11311;52.192;20.900;2023-06-19T13:11:37;3.75;;;2.95;;
22284;SDS011;11311;52.192;20.900;2023-06-19T13:14:06;3.03;;;2.83;;
22284;SDS011;11311;52.192;20.900;2023-06-19T13:16:36;3.50;;;3.13;;
22284;SDS011;11311;52.192;20.900;2023-06-19T13:19:08;2.95;;;2.53;;
22284;SDS011;11311;52.192;20.900;2023-06-19T13:21:37;2.60;;;2.40;;
22284;SDS011;11311;52.192;20.900;2023-06-19T13:24:05;2.85;;;2.53;;
22284;SDS011;11311;52.192;20.900;2023-06-19T13:26:35;3.72;;;2.80;;
22284;SDS011;11311;52.192;20.900;2023-06-19T13:29:04;4.70;;;3.15;;
22284;SDS011;11311;52.192;20.900;2023-06-19T13:31:32;3.03;;;2.83;;
22284;SDS011;11311;52.192;20.900;2023-06-19T13:34:03;3.45;;;3.15;;
22284;SDS011;11311;52.192;20.900;2023-06-19T13:36:32;3.28;;;2.97;;
22284;SDS011;11311;52.192;20.900;2023-06-19T13:39:01;3.85;;;2.67;;
22284;SDS011;11311;52.192;20.900;2023-06-19T13:41:31;4.63;;;2.97;;
22284;SDS011;11311;52.192;20.900;2023-06-19T13:44:01;8.02;;;2.80;;
22284;SDS011;11311;52.192;20.900;2023-06-19T13:46:30;3.30;;;3.00;;
22284;SDS011;11311;52.192;20.900;2023-06-19T13:49:00;5.45;;;3.00;;
22284;SDS011;11311;52.192;20.900;2023-06-19T13:51:31;4.28;;;3.60;;
22284;SDS011;11311;52.192;20.900;2023-06-19T13:54:01;2.70;;;2.50;;
22284;SDS011;11311;52.192;20.900;2023-06-19T13:56:31;3.00;;;2.80;;
22284;SDS011;11311;52.192;20.900;2023-06-19T13:59:00;3.58;;;2.50;;
22284;SDS011;11311;52.192;20.900;2023-06-19T14:04:01;3.35;;;3.10;;
22284;SDS011;11311;52.192;20.900;2023-06-19T14:06:31;3.35;;;3.03;;
22284;SDS011;11311;52.192;20.900;2023-06-19T14:09:00;4.13;;;3.03;;
22284;SDS011;11311;52.192;20.900;2023-06-19T14:11:29;3.30;;;2.97;;
22284;SDS011;11311;52.192;20.900;2023-06-19T14:14:00;9.23;;;3.00;;
22284;SDS011;11311;52.192;20.900;2023-06-19T14:16:28;3.88;;;2.92;;
22284;SDS011;11311;52.192;20.900;2023-06-19T14:18:57;7.68;;;2.67;;
22284;SDS011;11311;52.192;20.900;2023-06-19T14:21:28;3.50;;;2.47;;
22284;SDS011;11311;52.192;20.900;2023-06-19T14:23:57;3.25;;;2.50;;
22284;SDS011;11311;52.192;20.900;2023-06-19T14:26:27;3.10;;;2.90;;
22284;SDS011;11311;52.192;20.900;2023-06-19T14:28:56;4.13;;;3.47;;
22284;SDS011;11311;52.192;20.900;2023-06-19T14:33:54;3.20;;;2.90;;
22284;SDS011;11311;52.192;20.900;2023-06-19T14:36:23;4.70;;;3.08;;
22284;SDS011;11311;52.192;20.900;2023-06-19T14:38:53;2.50;;;2.30;;
22284;SDS011;11311;52.192;20.900;2023-06-19T14:41:22;2.72;;;2.47;;
22284;SDS011;11311;52.192;20.900;2023-06-19T14:43:51;2.83;;;2.63;;
22284;SDS011;11311;52.192;20.900;2023-06-19T14:46:20;2.47;;;2.28;;
22284;SDS011;11311;52.192;20.900;2023-06-19T14:49:04;4.63;;;2.58;;
22284;SDS011;11311;52.192;20.900;2023-06-19T14:51:33;3.15;;;2.78;;
22284;SDS011;11311;52.192;20.900;2023-06-19T14:54:03;6.75;;;2.13;;
22284;SDS011;11311;52.192;20.900;2023-06-19T14:56:32;4.85;;;2.78;;
22284;SDS011;11311;52.192;20.900;2023-06-19T14:59:01;2.40;;;2.20;;
22284;SDS011;11311;52.192;20.900;2023-06-19T15:01:30;4.90;;;2.63;;
22284;SDS011;11311;52.192;20.900;2023-06-19T15:04:00;2.90;;;2.70;;
22284;SDS011;11311;52.192;20.900;2023-06-19T15:06:29;2.83;;;2.63;;
22284;SDS011;11311;52.192;20.900;2023-06-19T15:08:58;5.55;;;2.65;;
22284;SDS011;11311;52.192;20.900;2023-06-19T15:11:32;3.03;;;2.38;;
22284;SDS011;11311;52.192;20.900;2023-06-19T15:14:01;3.35;;;2.47;;
22284;SDS011;11311;52.192;20.900;2023-06-19T15:16:29;3.25;;;3.05;;
22284;SDS011;11311;52.192;20.900;2023-06-19T15:19:01;4.65;;;2.78;;
22284;SDS011;11311;52.192;20.900;2023-06-19T15:21:30;3.65;;;2.60;;
22284;SDS011;11311;52.192;20.900;2023-06-19T15:23:58;2.20;;;2.00;;